createdAt,value
2023-05-17T00:00:32.183Z,3.55
2023-05-17T00:02:59.371Z,3.63
2023-05-17T00:05:26.628Z,3.53
2023-05-17T00:07:53.834Z,3.92
2023-05-17T00:10:20.753Z,3.88
2023-05-17T00:12:48.061Z,3.60
2023-05-17T00:15:15.048Z,4.25
2023-05-17T00:17:42.106Z,4.18
2023-05-17T00:20:09.647Z,3.95
2023-05-17T00:22:36.836Z,4.38
2023-05-17T00:25:04.685Z,4.70
2023-05-17T00:27:31.635Z,4.00
2023-05-17T00:29:58.687Z,3.97
2023-05-17T00:32:25.946Z,4.10
2023-05-17T00:34:52.930Z,4.57
2023-05-17T00:37:20.160Z,4.30
2023-05-17T00:39:47.211Z,4.55
2023-05-17T00:42:15.108Z,4.75
2023-05-17T00:44:42.081Z,4.88
2023-05-17T00:47:09.054Z,5.30
2023-05-17T00:49:36.132Z,4.40
2023-05-17T00:52:03.716Z,4.82
2023-05-17T00:54:31.523Z,4.60
2023-05-17T00:57:00.839Z,4.90
2023-05-17T00:59:29.608Z,4.97
2023-05-17T01:01:57.092Z,4.88
2023-05-17T01:04:24.922Z,5.18
2023-05-17T01:06:52.341Z,4.90
2023-05-17T01:09:19.499Z,4.22
2023-05-17T01:11:59.578Z,5.28
2023-05-17T01:14:51.617Z,4.50
2023-05-17T01:17:28.595Z,4.80
2023-05-17T01:20:19.198Z,4.90
2023-05-17T01:22:57.459Z,4.35
2023-05-17T01:25:52.313Z,5.05
2023-05-17T01:28:21.933Z,4.90
2023-05-17T01:30:51.968Z,4.90
2023-05-17T01:33:20.957Z,4.80
2023-05-17T01:35:47.978Z,5.15
2023-05-17T01:38:14.921Z,5.20
2023-05-17T01:40:52.872Z,5.40
2023-05-17T01:43:31.680Z,5.63
2023-05-17T01:46:11.661Z,5.30
2023-05-17T01:48:44.828Z,5.28
2023-05-17T01:51:18.850Z,4.90
2023-05-17T01:53:56.243Z,5.97
2023-05-17T01:56:32.045Z,6.18
2023-05-17T01:59:00.145Z,6.32
2023-05-17T02:01:29.225Z,6.60
2023-05-17T02:03:56.199Z,6.68
2023-05-17T02:06:23.358Z,6.78
2023-05-17T02:08:50.474Z,7.30
2023-05-17T02:11:17.460Z,7.13
2023-05-17T02:13:44.878Z,8.00
2023-05-17T02:16:12.157Z,7.45
2023-05-17T02:18:40.681Z,8.85
2023-05-17T02:21:07.954Z,8.45
2023-05-17T02:23:34.942Z,9.45
2023-05-17T02:26:02.321Z,9.65
2023-05-17T02:28:29.655Z,8.95
2023-05-17T02:30:57.265Z,9.32
2023-05-17T02:33:24.392Z,8.75
2023-05-17T02:35:51.567Z,9.15
2023-05-17T02:38:18.576Z,8.15
2023-05-17T02:40:45.614Z,8.93
2023-05-17T02:43:12.569Z,9.63
2023-05-17T02:45:39.522Z,9.10
2023-05-17T02:48:06.953Z,8.73
2023-05-17T02:50:34.166Z,8.45
2023-05-17T02:53:01.350Z,9.20
2023-05-17T02:55:28.900Z,9.02
2023-05-17T02:57:56.156Z,9.88
2023-05-17T03:00:23.202Z,9.60
2023-05-17T03:02:50.848Z,9.23
2023-05-17T03:05:18.100Z,9.57
2023-05-17T03:07:45.009Z,9.98
2023-05-17T03:10:12.158Z,9.88
2023-05-17T03:12:39.314Z,9.10
2023-05-17T03:15:06.808Z,10.20
2023-05-17T03:17:35.048Z,9.63
2023-05-17T03:20:02.146Z,10.15
2023-05-17T03:22:29.082Z,9.60
2023-05-17T03:24:56.268Z,9.70
2023-05-17T03:27:23.322Z,9.50
2023-05-17T03:29:50.335Z,10.00
2023-05-17T03:32:17.319Z,9.88
2023-05-17T03:34:44.355Z,10.25
2023-05-17T03:37:11.518Z,10.75
2023-05-17T03:39:38.460Z,10.23
2023-05-17T03:42:06.507Z,10.30
2023-05-17T03:44:33.476Z,11.85
2023-05-17T03:47:00.447Z,11.60
2023-05-17T03:49:27.453Z,10.07
2023-05-17T03:51:54.502Z,10.10
2023-05-17T03:54:21.573Z,11.60
2023-05-17T03:56:50.349Z,10.15
2023-05-17T03:59:17.580Z,12.25
2023-05-17T04:01:45.853Z,11.50
2023-05-17T04:04:12.959Z,11.13
2023-05-17T04:06:41.214Z,9.85
2023-05-17T04:09:10.771Z,10.05
2023-05-17T04:11:38.264Z,12.05
2023-05-17T04:14:05.510Z,11.63
2023-05-17T04:16:32.566Z,9.95
2023-05-17T04:19:02.498Z,10.57
2023-05-17T04:21:29.504Z,10.82
2023-05-17T04:23:56.459Z,11.73
2023-05-17T04:26:23.786Z,12.30
2023-05-17T04:28:51.495Z,11.82
2023-05-17T04:31:18.582Z,12.15
2023-05-17T04:33:45.890Z,12.65
2023-05-17T04:36:13.141Z,11.68
2023-05-17T04:38:40.368Z,10.90
2023-05-17T04:41:09.514Z,9.18
2023-05-17T04:43:36.983Z,9.90
2023-05-17T04:46:05.743Z,8.27
2023-05-17T04:48:33.028Z,5.97
2023-05-17T04:51:07.645Z,5.95
2023-05-17T04:53:34.901Z,4.40
2023-05-17T04:56:04.419Z,4.40
2023-05-17T04:58:32.158Z,4.05
2023-05-17T05:00:59.128Z,3.72
2023-05-17T05:03:26.602Z,3.65
2023-05-17T05:05:53.930Z,3.80
2023-05-17T05:08:21.047Z,3.13
2023-05-17T05:10:48.138Z,3.00
2023-05-17T05:13:15.252Z,3.03
2023-05-17T05:15:42.326Z,3.42
2023-05-17T05:18:09.447Z,2.95
2023-05-17T05:20:36.613Z,2.20
2023-05-17T05:23:06.020Z,2.20
2023-05-17T05:25:33.429Z,2.50
2023-05-17T05:28:00.474Z,2.33
2023-05-17T05:30:27.630Z,2.45
2023-05-17T05:32:54.681Z,1.70
2023-05-17T05:35:29.359Z,1.90
2023-05-17T05:37:57.757Z,1.70
2023-05-17T05:40:24.791Z,1.40
2023-05-17T05:42:52.881Z,1.38
2023-05-17T05:45:20.081Z,1.13
2023-05-17T05:47:47.157Z,0.90
2023-05-17T05:50:14.141Z,0.90
2023-05-17T05:52:41.071Z,0.50
2023-05-17T05:55:08.392Z,0.68
2023-05-17T05:57:35.984Z,0.60
2023-05-17T06:00:05.215Z,0.60
2023-05-17T06:02:32.555Z,0.65
2023-05-17T06:04:59.774Z,0.40
2023-05-17T06:07:26.715Z,0.50
2023-05-17T06:09:53.770Z,0.60
2023-05-17T06:12:20.917Z,0.50
2023-05-17T06:14:48.271Z,0.30
2023-05-17T06:17:15.605Z,0.57
2023-05-17T06:19:42.698Z,0.50
2023-05-17T06:22:09.649Z,0.40
2023-05-17T06:24:37.144Z,0.40
2023-05-17T06:27:04.883Z,0.38
2023-05-17T06:29:32.293Z,0.40
2023-05-17T06:32:00.181Z,0.52
2023-05-17T06:34:27.597Z,0.38
2023-05-17T06:36:54.614Z,0.40
2023-05-17T06:39:22.092Z,0.60
2023-05-17T06:41:49.160Z,0.68
2023-05-17T06:44:16.149Z,0.60
2023-05-17T06:46:43.057Z,0.68
2023-05-17T06:49:12.223Z,0.57
2023-05-17T06:51:39.331Z,0.60
2023-05-17T06:54:06.702Z,0.60
2023-05-17T06:56:33.880Z,0.60
2023-05-17T06:59:01.041Z,0.70
2023-05-17T07:01:28.230Z,0.77
2023-05-17T07:03:55.717Z,0.70
2023-05-17T07:06:22.829Z,0.65
2023-05-17T07:08:50.035Z,0.75
2023-05-17T07:11:17.086Z,0.68
2023-05-17T07:13:44.193Z,0.50
2023-05-17T07:16:11.275Z,0.75
2023-05-17T07:18:38.415Z,0.70
2023-05-17T07:21:06.045Z,0.70
2023-05-17T07:23:33.004Z,0.70
2023-05-17T07:26:00.169Z,0.52
2023-05-17T07:28:27.284Z,0.63
2023-05-17T07:30:54.288Z,0.80
2023-05-17T07:33:21.353Z,1.02
2023-05-17T07:35:48.370Z,0.70
2023-05-17T07:38:15.389Z,0.73
2023-05-17T07:40:45.352Z,0.70
2023-05-17T07:43:12.435Z,0.73
2023-05-17T07:45:39.425Z,0.70
2023-05-17T07:48:06.743Z,0.60
2023-05-17T07:50:33.755Z,0.50
2023-05-17T07:53:00.771Z,0.52
2023-05-17T07:55:31.460Z,0.70
2023-05-17T07:57:59.486Z,0.60
2023-05-17T08:00:26.797Z,0.80
2023-05-17T08:02:53.931Z,0.70
2023-05-17T08:05:21.285Z,0.68
2023-05-17T08:07:48.420Z,0.70
2023-05-17T08:10:15.492Z,0.60
2023-05-17T08:12:42.481Z,0.80
2023-05-17T08:15:09.884Z,0.57
2023-05-17T08:17:36.961Z,0.57
2023-05-17T08:20:06.487Z,0.80
2023-05-17T08:22:33.721Z,0.50
2023-05-17T08:25:00.844Z,0.50
2023-05-17T08:27:29.557Z,0.60
2023-05-17T08:29:57.859Z,0.50
2023-05-17T08:32:25.599Z,0.70
2023-05-17T08:34:53.329Z,0.40
2023-05-17T08:37:20.415Z,0.40
2023-05-17T08:39:48.357Z,0.40
2023-05-17T08:42:20.084Z,0.35
2023-05-17T08:44:47.434Z,0.45
2023-05-17T08:47:26.042Z,0.40
2023-05-17T08:49:57.772Z,0.40
2023-05-17T08:52:24.931Z,0.40
2023-05-17T08:54:53.049Z,0.43
2023-05-17T08:57:20.481Z,0.45
2023-05-17T08:59:48.247Z,0.40
2023-05-17T09:02:15.922Z,0.50
2023-05-17T09:04:43.682Z,0.30
2023-05-17T09:07:11.437Z,0.30
2023-05-17T09:09:38.829Z,0.45
2023-05-17T09:12:06.879Z,0.40
2023-05-17T09:14:37.307Z,0.43
2023-05-17T09:17:05.630Z,0.43
2023-05-17T09:19:32.827Z,0.50
2023-05-17T09:22:04.652Z,0.73
2023-05-17T09:24:31.897Z,0.25
2023-05-17T09:27:03.561Z,0.40
2023-05-17T09:29:34.206Z,0.50
2023-05-17T09:32:15.313Z,0.30
2023-05-17T09:34:45.982Z,0.40
2023-05-17T09:37:15.471Z,0.55
2023-05-17T09:39:44.996Z,0.30
2023-05-17T09:42:15.951Z,0.30
2023-05-17T09:45:02.159Z,0.40
2023-05-17T09:47:30.737Z,0.50
2023-05-17T09:50:00.827Z,0.40
2023-05-17T09:52:32.203Z,0.30
2023-05-17T09:55:00.551Z,0.20
2023-05-17T09:57:29.620Z,0.30
2023-05-17T09:59:57.724Z,0.20
2023-05-17T10:02:31.111Z,0.32
2023-05-17T10:04:58.924Z,0.25
2023-05-17T10:07:28.028Z,0.30
2023-05-17T10:09:56.337Z,1.13
2023-05-17T10:12:25.835Z,0.35
2023-05-17T10:14:56.277Z,0.38
2023-05-17T10:17:24.579Z,0.40
2023-05-17T10:19:52.744Z,0.20
2023-05-17T10:22:23.623Z,0.20
2023-05-17T10:24:51.980Z,0.30
2023-05-17T10:27:19.932Z,0.28
2023-05-17T10:29:50.222Z,0.30
2023-05-17T10:32:22.143Z,0.30
2023-05-17T10:35:01.612Z,0.40
2023-05-17T10:37:37.316Z,0.30
2023-05-17T10:40:05.093Z,0.30
2023-05-17T10:42:32.515Z,0.40
2023-05-17T10:45:01.765Z,0.40
2023-05-17T10:47:35.101Z,0.30
2023-05-17T10:50:03.503Z,0.20
2023-05-17T10:52:31.166Z,0.20
2023-05-17T10:55:01.057Z,0.20
2023-05-17T10:57:50.588Z,0.20
2023-05-17T11:00:26.249Z,0.20
2023-05-17T11:03:14.257Z,0.55
2023-05-17T11:06:05.873Z,0.30
2023-05-17T11:08:57.018Z,0.30
2023-05-17T11:11:25.322Z,0.35
2023-05-17T11:13:59.293Z,0.30
2023-05-17T11:16:34.324Z,0.32
2023-05-17T11:19:11.571Z,0.20
2023-05-17T11:21:48.890Z,0.10
2023-05-17T11:24:29.266Z,0.20
2023-05-17T11:27:00.442Z,0.20
2023-05-17T11:29:31.090Z,0.20
2023-05-17T11:31:58.210Z,0.82
2023-05-17T11:34:26.986Z,0.15
2023-05-17T11:36:55.854Z,0.22
2023-05-17T11:39:24.639Z,0.43
2023-05-17T11:41:56.591Z,0.47
2023-05-17T11:44:34.780Z,0.30
2023-05-17T11:47:05.984Z,0.30
2023-05-17T11:49:36.389Z,0.35
2023-05-17T11:52:05.096Z,0.30
2023-05-17T11:54:32.497Z,0.30
2023-05-17T11:57:00.964Z,0.47
2023-05-17T11:59:27.956Z,0.40
2023-05-17T12:01:56.435Z,0.25
2023-05-17T12:04:25.731Z,0.32
2023-05-17T12:06:56.277Z,0.30
2023-05-17T12:09:25.202Z,0.25
2023-05-17T12:11:52.303Z,0.20
2023-05-17T12:14:20.511Z,0.40
2023-05-17T12:16:57.402Z,0.20
2023-05-17T12:19:30.028Z,0.30
2023-05-17T12:22:13.864Z,0.30
2023-05-17T12:24:42.983Z,0.80
2023-05-17T12:27:10.791Z,0.30
2023-05-17T12:29:39.292Z,0.20
2023-05-17T12:32:07.389Z,0.40
2023-05-17T12:34:35.004Z,0.40
2023-05-17T12:37:02.132Z,0.40
2023-05-17T12:39:33.606Z,0.43
2023-05-17T12:42:01.815Z,0.43
2023-05-17T12:44:28.802Z,0.38
2023-05-17T12:46:57.745Z,0.38
2023-05-17T12:49:24.903Z,0.32
2023-05-17T12:51:52.100Z,0.20
2023-05-17T12:54:28.918Z,0.38
2023-05-17T12:56:56.668Z,0.30
2023-05-17T12:59:26.565Z,0.30
2023-05-17T13:01:55.854Z,0.40
2023-05-17T13:04:33.281Z,0.55
2023-05-17T13:07:05.311Z,0.68
2023-05-17T13:09:34.682Z,0.63
2023-05-17T13:12:08.501Z,0.30
2023-05-17T13:14:44.404Z,0.40
2023-05-17T13:17:22.917Z,0.30
2023-05-17T13:19:50.127Z,0.50
2023-05-17T13:22:17.254Z,0.20
2023-05-17T13:24:45.407Z,0.28
2023-05-17T13:27:12.867Z,0.68
2023-05-17T13:29:41.984Z,0.43
2023-05-17T13:32:11.639Z,0.28
2023-05-17T13:34:39.251Z,0.45
2023-05-17T13:37:10.297Z,0.57
2023-05-17T13:39:39.093Z,0.50
2023-05-17T13:42:06.346Z,0.30
2023-05-17T13:44:33.524Z,0.40
2023-05-17T13:47:00.495Z,0.30
2023-05-17T13:49:28.619Z,0.65
2023-05-17T13:51:55.717Z,0.40
2023-05-17T13:54:25.845Z,0.30
2023-05-17T13:56:55.630Z,0.50
2023-05-17T13:59:22.666Z,1.10
2023-05-17T14:01:49.757Z,0.40
2023-05-17T14:04:17.170Z,0.47
2023-05-17T14:06:45.333Z,0.68
2023-05-17T14:09:13.725Z,0.60
2023-05-17T14:11:41.054Z,0.47
2023-05-17T14:14:08.021Z,0.40
2023-05-17T14:16:35.043Z,0.52
2023-05-17T14:19:04.517Z,0.75
2023-05-17T14:21:31.936Z,0.50
2023-05-17T14:23:58.995Z,0.30
2023-05-17T14:26:26.847Z,0.40
2023-05-17T14:28:54.038Z,0.30
2023-05-17T14:31:21.177Z,0.52
2023-05-17T14:33:48.209Z,0.50
2023-05-17T14:36:15.263Z,0.50
2023-05-17T14:38:42.232Z,0.43
2023-05-17T14:41:09.418Z,0.40
2023-05-17T14:43:36.799Z,0.60
2023-05-17T14:46:04.567Z,0.55
2023-05-17T14:48:31.810Z,0.77
2023-05-17T14:50:58.900Z,0.70
2023-05-17T14:53:30.397Z,0.50
2023-05-17T14:55:58.066Z,1.10
2023-05-17T14:58:25.889Z,0.73
2023-05-17T15:01:05.752Z,0.70
2023-05-17T15:03:34.703Z,0.77
2023-05-17T15:06:05.126Z,0.65
2023-05-17T15:08:34.622Z,0.60
2023-05-17T15:11:01.910Z,0.43
2023-05-17T15:13:28.907Z,0.57
2023-05-17T15:15:56.460Z,0.60
2023-05-17T15:18:24.210Z,0.50
2023-05-17T15:20:51.248Z,0.60
2023-05-17T15:23:18.231Z,0.70
2023-05-17T15:25:45.815Z,0.93
2023-05-17T15:28:13.061Z,1.08
2023-05-17T15:30:42.282Z,0.70
2023-05-17T15:33:10.008Z,0.90
2023-05-17T15:35:40.338Z,0.60
2023-05-17T15:38:07.675Z,1.00
2023-05-17T15:40:34.869Z,1.13
2023-05-17T15:43:02.304Z,0.70
2023-05-17T15:45:29.726Z,0.98
2023-05-17T15:47:57.335Z,0.70
2023-05-17T15:50:24.613Z,0.43
2023-05-17T15:52:52.086Z,0.80
2023-05-17T15:55:19.356Z,0.90
2023-05-17T15:57:47.285Z,1.20
2023-05-17T16:00:14.676Z,0.60
2023-05-17T16:02:42.127Z,0.93
2023-05-17T16:05:09.603Z,0.90
2023-05-17T16:07:36.547Z,0.82
2023-05-17T16:10:03.992Z,0.65
2023-05-17T16:12:31.242Z,0.70
2023-05-17T16:14:58.406Z,0.85
2023-05-17T16:17:25.892Z,0.50
2023-05-17T16:19:53.784Z,0.50
2023-05-17T16:22:25.162Z,0.65
2023-05-17T16:24:54.095Z,0.38
2023-05-17T16:27:22.573Z,0.60
2023-05-17T16:29:49.642Z,0.60
2023-05-17T16:32:17.299Z,0.70
2023-05-17T16:34:44.359Z,0.68
2023-05-17T16:37:11.376Z,0.50
2023-05-17T16:39:38.619Z,0.40
2023-05-17T16:42:05.946Z,0.40
2023-05-17T16:44:33.422Z,0.45
2023-05-17T16:47:01.271Z,0.30
2023-05-17T16:49:30.484Z,0.57
2023-05-17T16:51:57.850Z,0.30
2023-05-17T16:54:28.287Z,0.50
2023-05-17T16:56:57.890Z,0.30
2023-05-17T16:59:25.130Z,0.60
2023-05-17T17:01:52.171Z,0.43
2023-05-17T17:04:19.389Z,0.30
2023-05-17T17:06:46.518Z,0.65
2023-05-17T17:09:14.389Z,0.70
2023-05-17T17:11:41.798Z,0.77
2023-05-17T17:14:09.097Z,0.65
2023-05-17T17:16:36.137Z,0.57
2023-05-17T17:19:03.833Z,0.60
2023-05-17T17:21:36.450Z,0.68
2023-05-17T17:24:05.637Z,0.60
2023-05-17T17:26:35.908Z,0.80
2023-05-17T17:29:14.884Z,0.70
2023-05-17T17:31:42.449Z,0.75
2023-05-17T17:34:09.481Z,0.88
2023-05-17T17:36:36.808Z,0.57
2023-05-17T17:39:03.957Z,0.73
2023-05-17T17:41:32.853Z,0.80
2023-05-17T17:44:00.505Z,1.33
2023-05-17T17:46:27.492Z,1.55
2023-05-17T17:48:56.682Z,0.70
2023-05-17T17:51:23.951Z,0.80
2023-05-17T17:53:53.200Z,0.77
2023-05-17T17:56:20.365Z,0.68
2023-05-17T17:58:48.404Z,0.70
2023-05-17T18:01:16.132Z,0.80
2023-05-17T18:03:43.166Z,2.35
2023-05-17T18:06:14.038Z,1.63
2023-05-17T18:08:41.178Z,1.10
2023-05-17T18:11:08.241Z,1.02
2023-05-17T18:13:35.328Z,1.20
2023-05-17T18:16:02.393Z,0.73
2023-05-17T18:18:29.485Z,0.80
2023-05-17T18:20:56.596Z,1.17
2023-05-17T18:23:24.528Z,0.63
2023-05-17T18:25:51.951Z,0.68
2023-05-17T18:28:26.851Z,1.85
2023-05-17T18:31:05.055Z,0.77
2023-05-17T18:33:34.177Z,0.50
2023-05-17T18:36:01.631Z,0.80
2023-05-17T18:38:28.790Z,0.60
2023-05-17T18:40:56.017Z,0.68
2023-05-17T18:43:23.065Z,0.82
2023-05-17T18:45:50.994Z,1.10
2023-05-17T18:48:18.988Z,1.00
2023-05-17T18:50:46.221Z,1.20
2023-05-17T18:53:13.268Z,1.10
2023-05-17T18:55:41.054Z,1.30
2023-05-17T18:58:08.343Z,1.42
2023-05-17T19:00:35.785Z,0.73
2023-05-17T19:03:04.637Z,0.30
2023-05-17T19:05:31.831Z,0.40
2023-05-17T19:07:58.848Z,0.50
2023-05-17T19:10:26.556Z,1.10
2023-05-17T19:12:53.706Z,0.30
2023-05-17T19:15:21.198Z,0.40
2023-05-17T19:17:48.245Z,0.30
2023-05-17T19:20:15.419Z,0.68
2023-05-17T19:22:42.399Z,0.73
2023-05-17T19:25:09.876Z,0.65
2023-05-17T19:27:36.901Z,0.50
2023-05-17T19:30:04.453Z,0.50
2023-05-17T19:32:33.259Z,0.50
2023-05-17T19:35:01.645Z,0.40
2023-05-17T19:37:28.884Z,0.70
2023-05-17T19:39:56.110Z,0.50
2023-05-17T19:42:23.128Z,0.70
2023-05-17T19:44:50.312Z,0.28
2023-05-17T19:47:17.351Z,0.40
2023-05-17T19:49:44.603Z,0.73
2023-05-17T19:52:11.672Z,0.65
2023-05-17T19:54:38.791Z,0.40
2023-05-17T19:57:05.960Z,0.70
2023-05-17T19:59:33.103Z,0.40
2023-05-17T20:02:00.258Z,0.80
2023-05-17T20:04:27.349Z,0.50
2023-05-17T20:06:54.944Z,0.60
2023-05-17T20:09:22.090Z,3.42
2023-05-17T20:11:49.079Z,0.52
2023-05-17T20:14:16.625Z,0.60
2023-05-17T20:16:43.896Z,0.50
2023-05-17T20:19:11.132Z,0.60
2023-05-17T20:21:38.253Z,0.73
2023-05-17T20:24:06.901Z,0.50
2023-05-17T20:26:37.317Z,0.40
2023-05-17T20:29:07.376Z,0.50
2023-05-17T20:31:36.137Z,0.73
2023-05-17T20:34:04.195Z,0.68
2023-05-17T20:36:31.765Z,0.82
2023-05-17T20:38:59.560Z,0.73
2023-05-17T20:41:26.589Z,0.60
2023-05-17T20:43:53.874Z,0.65
2023-05-17T20:46:21.088Z,0.60
2023-05-17T20:48:49.795Z,0.68
2023-05-17T20:51:19.806Z,0.50
2023-05-17T20:53:46.902Z,0.63
2023-05-17T20:56:19.262Z,0.70
2023-05-17T20:58:46.892Z,0.47
2023-05-17T21:01:14.916Z,0.85
2023-05-17T21:03:43.690Z,0.60
2023-05-17T21:06:11.242Z,0.70
2023-05-17T21:08:38.584Z,0.60
2023-05-17T21:11:05.693Z,0.43
2023-05-17T21:13:32.711Z,0.82
2023-05-17T21:16:00.368Z,0.60
2023-05-17T21:18:27.381Z,0.60
2023-05-17T21:20:55.168Z,0.60
2023-05-17T21:23:22.383Z,0.85
2023-05-17T21:25:49.835Z,0.73
2023-05-17T21:28:16.896Z,0.80
2023-05-17T21:30:43.997Z,1.02
2023-05-17T21:33:11.130Z,1.20
2023-05-17T21:35:38.490Z,0.70
2023-05-17T21:38:05.876Z,0.95
2023-05-17T21:40:33.296Z,1.65
2023-05-17T21:43:00.414Z,1.02
2023-05-17T21:45:27.819Z,1.40
2023-05-17T21:47:55.091Z,1.80
2023-05-17T21:50:22.235Z,1.50
2023-05-17T21:52:49.321Z,1.42
2023-05-17T21:55:16.308Z,1.50
2023-05-17T21:57:43.547Z,1.52
2023-05-17T22:00:15.491Z,1.10
2023-05-17T22:02:46.360Z,1.05
2023-05-17T22:05:13.745Z,1.77
2023-05-17T22:07:41.322Z,1.35
2023-05-17T22:10:10.011Z,0.98
2023-05-17T22:12:38.511Z,1.05
2023-05-17T22:15:06.112Z,2.35
2023-05-17T22:17:43.268Z,1.10
2023-05-17T22:20:17.898Z,0.90
2023-05-17T22:22:44.995Z,1.20
2023-05-17T22:25:12.092Z,1.08
2023-05-17T22:27:39.024Z,1.05
2023-05-17T22:30:07.784Z,0.93
2023-05-17T22:32:34.770Z,1.00
2023-05-17T22:35:01.892Z,1.40
2023-05-17T22:37:30.362Z,1.65
2023-05-17T22:39:57.331Z,1.80
2023-05-17T22:42:24.258Z,1.10
2023-05-17T22:44:51.448Z,0.80
2023-05-17T22:47:22.782Z,0.80
2023-05-17T22:49:52.678Z,0.82
2023-05-17T22:52:20.037Z,0.80
2023-05-17T22:54:47.291Z,0.98
2023-05-17T22:57:14.340Z,0.88
2023-05-17T22:59:44.107Z,0.95
2023-05-17T23:02:12.443Z,0.75
2023-05-17T23:04:40.574Z,1.08
2023-05-17T23:07:10.219Z,0.77
2023-05-17T23:09:40.934Z,1.23
2023-05-17T23:12:14.074Z,0.98
2023-05-17T23:14:41.276Z,0.90
2023-05-17T23:17:08.689Z,0.70
2023-05-17T23:19:36.282Z,0.80
2023-05-17T23:22:04.186Z,0.75
2023-05-17T23:24:31.653Z,0.90
2023-05-17T23:26:59.030Z,0.80
2023-05-17T23:29:26.210Z,0.70
2023-05-17T23:31:53.569Z,0.73
2023-05-17T23:34:21.125Z,0.65
2023-05-17T23:36:48.139Z,0.80
2023-05-17T23:39:15.824Z,0.88
2023-05-17T23:41:43.201Z,0.60
2023-05-17T23:44:11.074Z,0.80
2023-05-17T23:46:38.357Z,0.77
2023-05-17T23:49:05.953Z,1.05
2023-05-17T23:51:34.947Z,0.80
2023-05-17T23:54:02.189Z,1.38
2023-05-17T23:56:29.820Z,2.00
2023-05-17T23:58:56.749Z,1.27
